sensor_id;sensor_type;location;lat;lon;timestamp;pressure;altitude;pressure_sealevel;temperature;humidity
72558;BME280;60583;50.094;8.748;2023-03-18T00:00:43;99992.25;;;10.71;69.33
72558;BME280;60583;50.094;8.748;2023-03-18T00:03:09;99966.44;;;10.59;69.31
72558;BME280;60583;50.094;8.748;2023-03-18T00:05:35;99968.06;;;10.60;69.81
72558;BME280;60583;50.094;8.748;2023-03-18T00:08:03;99999.59;;;10.82;69.07
72558;BME280;60583;50.094;8.748;2023-03-18T00:10:29;99980.78;;;10.71;67.76
72558;BME280;60583;50.094;8.748;2023-03-18T00:12:55;99995.47;;;10.93;67.40
72558;BME280;60583;50.094;8.748;2023-03-18T00:15:20;100007.31;;;11.10;66.71
72558;BME280;60583;50.094;8.748;2023-03-18T00:17:46;100033.91;;;11.36;66.35
72558;BME280;60583;50.094;8.748;2023-03-18T00:20:15;99982.28;;;11.11;66.05
72558;BME280;60583;50.094;8.748;2023-03-18T00:22:43;99961.38;;;11.02;65.83
72558;BME280;60583;50.094;8.748;2023-03-18T00:25:12;100020.25;;;11.51;65.45
72558;BME280;60583;50.094;8.748;2023-03-18T00:27:38;100009.81;;;11.43;64.75
72558;BME280;60583;50.094;8.748;2023-03-18T00:30:05;99991.13;;;11.43;64.79
72558;BME280;60583;50.094;8.748;2023-03-18T00:32:30;100006.06;;;11.57;64.78
72558;BME280;60583;50.094;8.748;2023-03-18T00:34:57;99979.66;;;11.42;64.64
72558;BME280;60583;50.094;8.748;2023-03-18T00:37:24;100029.00;;;11.78;64.36
72558;BME280;60583;50.094;8.748;2023-03-18T00:40:01;100003.34;;;11.64;64.48
72558;BME280;60583;50.094;8.748;2023-03-18T00:42:36;100019.75;;;11.74;64.13
72558;BME280;60583;50.094;8.748;2023-03-18T00:45:13;100041.13;;;11.74;65.04
72558;BME280;60583;50.094;8.748;2023-03-18T00:47:41;100056.31;;;11.73;65.63
72558;BME280;60583;50.094;8.748;2023-03-18T00:50:08;99979.03;;;11.40;64.82
72558;BME280;60583;50.094;8.748;2023-03-18T00:52:35;99976.38;;;11.40;64.66
72558;BME280;60583;50.094;8.748;2023-03-18T00:55:03;100042.72;;;11.81;64.89
72558;BME280;60583;50.094;8.748;2023-03-18T00:57:28;100028.16;;;11.77;65.04
72558;BME280;60583;50.094;8.748;2023-03-18T00:59:55;100035.78;;;11.74;64.62
72558;BME280;60583;50.094;8.748;2023-03-18T01:02:21;100007.50;;;11.53;65.39
72558;BME280;60583;50.094;8.748;2023-03-18T01:04:48;99965.97;;;11.32;64.47
72558;BME280;60583;50.094;8.748;2023-03-18T01:07:14;99993.53;;;11.58;64.37
72558;BME280;60583;50.094;8.748;2023-03-18T01:09:40;100036.97;;;11.84;64.32
72558;BME280;60583;50.094;8.748;2023-03-18T01:12:09;99970.19;;;11.46;64.62
72558;BME280;60583;50.094;8.748;2023-03-18T01:14:36;99963.47;;;11.37;65.29
72558;BME280;60583;50.094;8.748;2023-03-18T01:17:04;99977.00;;;11.36;65.89
72558;BME280;60583;50.094;8.748;2023-03-18T01:19:30;99965.16;;;11.25;66.18
72558;BME280;60583;50.094;8.748;2023-03-18T01:21:56;100025.13;;;11.61;66.14
72558;BME280;60583;50.094;8.748;2023-03-18T01:24:22;100001.63;;;11.44;66.34
72558;BME280;60583;50.094;8.748;2023-03-18T01:26:47;100030.31;;;11.55;66.64
72558;BME280;60583;50.094;8.748;2023-03-18T01:29:13;100027.84;;;11.54;66.48
72558;BME280;60583;50.094;8.748;2023-03-18T01:31:39;100027.03;;;11.53;67.01
72558;BME280;60583;50.094;8.748;2023-03-18T01:34:05;100053.06;;;11.71;67.41
72558;BME280;60583;50.094;8.748;2023-03-18T01:36:31;100044.88;;;11.60;66.87
72558;BME280;60583;50.094;8.748;2023-03-18T01:38:57;100044.28;;;11.58;67.34
72558;BME280;60583;50.094;8.748;2023-03-18T01:41:24;100014.56;;;11.41;67.75
72558;BME280;60583;50.094;8.748;2023-03-18T01:43:51;100049.44;;;11.46;68.74
72558;BME280;60583;50.094;8.748;2023-03-18T01:46:41;100044.16;;;11.39;68.75
72558;BME280;60583;50.094;8.748;2023-03-18T01:49:19;99956.91;;;10.82;69.64
72558;BME280;60583;50.094;8.748;2023-03-18T01:51:51;100038.88;;;11.26;70.41
72558;BME280;60583;50.094;8.748;2023-03-18T01:54:19;100062.25;;;11.31;70.90
72558;BME280;60583;50.094;8.748;2023-03-18T01:56:47;100050.75;;;11.30;70.79
72558;BME280;60583;50.094;8.748;2023-03-18T01:59:14;100002.03;;;10.97;71.57
72558;BME280;60583;50.094;8.748;2023-03-18T02:02:22;100066.53;;;11.38;71.96
72558;BME280;60583;50.094;8.748;2023-03-18T02:04:35;99991.59;;;10.89;73.14
72558;BME280;60583;50.094;8.748;2023-03-18T02:07:02;100062.06;;;11.32;73.95
72558;BME280;60583;50.094;8.748;2023-03-18T02:09:28;100032.34;;;11.16;73.57
72558;BME280;60583;50.094;8.748;2023-03-18T02:11:54;99993.81;;;10.99;74.13
72558;BME280;60583;50.094;8.748;2023-03-18T02:14:21;100017.19;;;11.10;73.44
72558;BME280;60583;50.094;8.748;2023-03-18T02:16:57;99995.72;;;10.78;73.10
72558;BME280;60583;50.094;8.748;2023-03-18T02:19:51;100035.06;;;10.96;73.81
72558;BME280;60583;50.094;8.748;2023-03-18T02:22:31;99982.63;;;10.64;72.84
72558;BME280;60583;50.094;8.748;2023-03-18T02:25:25;100036.91;;;11.02;73.58
72558;BME280;60583;50.094;8.748;2023-03-18T02:27:56;100032.81;;;10.93;73.52
72558;BME280;60583;50.094;8.748;2023-03-18T02:30:31;100032.84;;;10.86;73.89
72558;BME280;60583;50.094;8.748;2023-03-18T02:32:58;100043.91;;;10.90;74.50
72558;BME280;60583;50.094;8.748;2023-03-18T02:35:26;100017.88;;;10.79;74.34
72558;BME280;60583;50.094;8.748;2023-03-18T02:37:53;100037.31;;;10.99;73.78
72558;BME280;60583;50.094;8.748;2023-03-18T02:40:24;100030.34;;;10.98;74.50
72558;BME280;60583;50.094;8.748;2023-03-18T02:42:50;100019.69;;;10.92;74.04
72558;BME280;60583;50.094;8.748;2023-03-18T02:46:04;100000.66;;;10.68;75.41
72558;BME280;60583;50.094;8.748;2023-03-18T02:48:40;100045.75;;;10.83;75.39
72558;BME280;60583;50.094;8.748;2023-03-18T02:51:07;100062.84;;;10.69;77.41
72558;BME280;60583;50.094;8.748;2023-03-18T02:53:35;100000.53;;;10.24;77.25
72558;BME280;60583;50.094;8.748;2023-03-18T02:56:00;100031.28;;;10.33;78.57
72558;BME280;60583;50.094;8.748;2023-03-18T02:58:26;100016.31;;;10.25;78.00
72558;BME280;60583;50.094;8.748;2023-03-18T03:00:52;100024.94;;;10.34;77.58
72558;BME280;60583;50.094;8.748;2023-03-18T03:03:19;100048.44;;;10.70;77.17
72558;BME280;60583;50.094;8.748;2023-03-18T03:05:45;100004.22;;;10.49;77.34
72558;BME280;60583;50.094;8.748;2023-03-18T03:08:11;100067.53;;;10.86;77.43
72558;BME280;60583;50.094;8.748;2023-03-18T03:10:36;100048.44;;;10.70;77.89
72558;BME280;60583;50.094;8.748;2023-03-18T03:13:02;100049.50;;;10.56;78.91
72558;BME280;60583;50.094;8.748;2023-03-18T03:15:28;100016.50;;;10.17;79.91
72558;BME280;60583;50.094;8.748;2023-03-18T03:17:54;100031.69;;;10.30;80.25
72558;BME280;60583;50.094;8.748;2023-03-18T03:20:20;100077.63;;;10.52;80.73
72558;BME280;60583;50.094;8.748;2023-03-18T03:22:46;99994.78;;;9.94;81.58
72558;BME280;60583;50.094;8.748;2023-03-18T03:25:12;100014.03;;;10.09;81.13
72558;BME280;60583;50.094;8.748;2023-03-18T03:27:39;100034.56;;;10.29;81.24
72558;BME280;60583;50.094;8.748;2023-03-18T03:30:07;99997.84;;;10.04;80.71
72558;BME280;60583;50.094;8.748;2023-03-18T03:32:34;100011.16;;;10.11;81.01
72558;BME280;60583;50.094;8.748;2023-03-18T03:35:00;100034.56;;;10.29;81.30
72558;BME280;60583;50.094;8.748;2023-03-18T03:37:26;100028.81;;;10.25;80.29
72558;BME280;60583;50.094;8.748;2023-03-18T03:39:52;100073.50;;;10.56;80.42
72558;BME280;60583;50.094;8.748;2023-03-18T03:42:18;100062.00;;;10.55;81.67
72558;BME280;60583;50.094;8.748;2023-03-18T03:44:44;100069.22;;;10.42;82.95
72558;BME280;60583;50.094;8.748;2023-03-18T03:47:11;100051.16;;;10.31;83.83
72558;BME280;60583;50.094;8.748;2023-03-18T03:49:36;100078.81;;;10.43;84.24
72558;BME280;60583;50.094;8.748;2023-03-18T03:52:02;99996.78;;;9.92;84.88
72558;BME280;60583;50.094;8.748;2023-03-18T03:54:28;100082.94;;;10.45;85.56
72558;BME280;60583;50.094;8.748;2023-03-18T03:56:54;100061.81;;;10.31;86.30
72558;BME280;60583;50.094;8.748;2023-03-18T03:59:20;100093.81;;;10.44;86.95
72558;BME280;60583;50.094;8.748;2023-03-18T04:01:45;100078.41;;;10.33;86.84
72558;BME280;60583;50.094;8.748;2023-03-18T04:04:11;100035.94;;;9.98;87.53
72558;BME280;60583;50.094;8.748;2023-03-18T04:06:37;100037.81;;;10.04;87.06
72558;BME280;60583;50.094;8.748;2023-03-18T04:09:03;100036.16;;;10.03;87.27
72558;BME280;60583;50.094;8.748;2023-03-18T04:11:29;100026.50;;;10.02;87.38
72558;BME280;60583;50.094;8.748;2023-03-18T04:13:58;100029.38;;;10.07;87.74
72558;BME280;60583;50.094;8.748;2023-03-18T04:16:23;100045.03;;;10.17;88.28
72558;BME280;60583;50.094;8.748;2023-03-18T04:18:49;100100.78;;;10.38;88.23
72558;BME280;60583;50.094;8.748;2023-03-18T04:21:15;100042.94;;;9.99;89.15
72558;BME280;60583;50.094;8.748;2023-03-18T04:23:40;100028.16;;;9.90;88.79
72558;BME280;60583;50.094;8.748;2023-03-18T04:26:06;100090.72;;;10.34;89.39
72558;BME280;60583;50.094;8.748;2023-03-18T04:28:33;100092.78;;;10.32;90.10
72558;BME280;60583;50.094;8.748;2023-03-18T04:30:58;100088.66;;;10.22;89.67
72558;BME280;60583;50.094;8.748;2023-03-18T04:33:24;100085.16;;;10.15;89.68
72558;BME280;60583;50.094;8.748;2023-03-18T04:35:49;100079.59;;;10.10;90.13
72558;BME280;60583;50.094;8.748;2023-03-18T04:38:15;100101.38;;;10.20;90.68
72558;BME280;60583;50.094;8.748;2023-03-18T04:40:41;100064.41;;;9.91;91.24
72558;BME280;60583;50.094;8.748;2023-03-18T04:43:07;100067.69;;;9.93;91.52
72558;BME280;60583;50.094;8.748;2023-03-18T04:45:34;100031.59;;;9.71;91.21
72558;BME280;60583;50.094;8.748;2023-03-18T04:48:00;100067.91;;;9.92;91.18
72558;BME280;60583;50.094;8.748;2023-03-18T04:50:26;100037.75;;;9.72;91.22
72558;BME280;60583;50.094;8.748;2023-03-18T04:52:52;100076.91;;;9.97;90.83
72558;BME280;60583;50.094;8.748;2023-03-18T04:55:21;100079.34;;;9.92;91.82
72558;BME280;60583;50.094;8.748;2023-03-18T04:57:47;100077.69;;;9.78;92.58
72558;BME280;60583;50.094;8.748;2023-03-18T05:00:20;100092.28;;;9.89;91.36
72558;BME280;60583;50.094;8.748;2023-03-18T05:02:47;100111.47;;;9.78;92.56
72558;BME280;60583;50.094;8.748;2023-03-18T05:05:12;100075.16;;;9.57;91.96
72558;BME280;60583;50.094;8.748;2023-03-18T05:07:38;100026.97;;;9.26;92.22
72558;BME280;60583;50.094;8.748;2023-03-18T05:10:05;100090.13;;;9.64;91.95
72558;BME280;60583;50.094;8.748;2023-03-18T05:12:32;100061.19;;;9.42;91.88
72558;BME280;60583;50.094;8.748;2023-03-18T05:14:57;100066.13;;;9.45;91.38
72558;BME280;60583;50.094;8.748;2023-03-18T05:17:23;100083.31;;;9.42;91.66
72558;BME280;60583;50.094;8.748;2023-03-18T05:19:49;100107.31;;;9.55;92.03
72558;BME280;60583;50.094;8.748;2023-03-18T05:22:18;100016.78;;;8.88;92.37
72558;BME280;60583;50.094;8.748;2023-03-18T05:24:44;100076.69;;;9.32;92.35
72558;BME280;60583;50.094;8.748;2023-03-18T05:27:11;100040.19;;;9.13;92.03
72558;BME280;60583;50.094;8.748;2023-03-18T05:29:38;100122.72;;;9.67;92.35
72558;BME280;60583;50.094;8.748;2023-03-18T05:32:05;100024.78;;;9.02;92.70
72558;BME280;60583;50.094;8.748;2023-03-18T05:34:34;100097.44;;;9.43;92.59
72558;BME280;60583;50.094;8.748;2023-03-18T05:37:03;100021.84;;;8.83;93.10
72558;BME280;60583;50.094;8.748;2023-03-18T05:39:29;100076.88;;;9.24;92.99
72558;BME280;60583;50.094;8.748;2023-03-18T05:41:56;100094.53;;;9.38;92.73
72558;BME280;60583;50.094;8.748;2023-03-18T05:44:22;100068.84;;;9.17;92.67
72558;BME280;60583;50.094;8.748;2023-03-18T05:46:48;100089.38;;;9.30;92.73
72558;BME280;60583;50.094;8.748;2023-03-18T05:49:15;100111.13;;;9.40;93.14
72558;BME280;60583;50.094;8.748;2023-03-18T05:51:41;100086.72;;;9.30;93.07
72558;BME280;60583;50.094;8.748;2023-03-18T05:54:06;100116.06;;;9.43;93.04
72558;BME280;60583;50.094;8.748;2023-03-18T05:56:32;100110.31;;;9.39;92.87
72558;BME280;60583;50.094;8.748;2023-03-18T05:58:57;100088.38;;;9.31;93.01
72558;BME280;60583;50.094;8.748;2023-03-18T06:01:23;100138.25;;;9.63;92.80
72558;BME280;60583;50.094;8.748;2023-03-18T06:03:52;100036.22;;;8.95;93.17
72558;BME280;60583;50.094;8.748;2023-03-18T06:06:18;100092.88;;;9.37;92.55
72558;BME280;60583;50.094;8.748;2023-03-18T06:08:44;100101.31;;;9.40;92.44
72558;BME280;60583;50.094;8.748;2023-03-18T06:11:11;100055.09;;;9.07;92.73
72558;BME280;60583;50.094;8.748;2023-03-18T06:13:36;100134.53;;;9.51;92.25
72558;BME280;60583;50.094;8.748;2023-03-18T06:16:03;100121.25;;;9.57;91.99
72558;BME280;60583;50.094;8.748;2023-03-18T06:18:28;100148.09;;;9.62;92.29
72558;BME280;60583;50.094;8.748;2023-03-18T06:20:54;100124.03;;;9.43;93.13
72558;BME280;60583;50.094;8.748;2023-03-18T06:23:20;100107.84;;;9.38;92.45
72558;BME280;60583;50.094;8.748;2023-03-18T06:25:46;100123.44;;;9.41;92.86
72558;BME280;60583;50.094;8.748;2023-03-18T06:28:14;100122.38;;;9.35;92.94
72558;BME280;60583;50.094;8.748;2023-03-18T06:30:40;100140.69;;;9.51;92.82
72558;BME280;60583;50.094;8.748;2023-03-18T06:33:06;100161.38;;;9.56;92.82
72558;BME280;60583;50.094;8.748;2023-03-18T06:35:31;100092.19;;;9.15;92.95
72558;BME280;60583;50.094;8.748;2023-03-18T06:37:57;100107.00;;;9.31;92.78
72558;BME280;60583;50.094;8.748;2023-03-18T06:40:23;100096.53;;;9.23;93.07
72558;BME280;60583;50.094;8.748;2023-03-18T06:42:49;100142.91;;;9.48;93.45
72558;BME280;60583;50.094;8.748;2023-03-18T06:45:15;100143.69;;;9.42;92.96
72558;BME280;60583;50.094;8.748;2023-03-18T06:47:42;100126.25;;;9.33;93.18
72558;BME280;60583;50.094;8.748;2023-03-18T06:50:09;100121.94;;;9.32;93.49
72558;BME280;60583;50.094;8.748;2023-03-18T06:52:34;100136.72;;;9.41;93.56
72558;BME280;60583;50.094;8.748;2023-03-18T06:55:02;100085.06;;;9.22;92.49
72558;BME280;60583;50.094;8.748;2023-03-18T06:57:28;100100.09;;;9.43;92.62
72558;BME280;60583;50.094;8.748;2023-03-18T06:59:54;100137.22;;;9.57;92.04
72558;BME280;60583;50.094;8.748;2023-03-18T07:02:19;100132.13;;;9.62;92.30
72558;BME280;60583;50.094;8.748;2023-03-18T07:04:48;100125.72;;;9.50;92.12
72558;BME280;60583;50.094;8.748;2023-03-18T07:07:14;100151.19;;;9.66;91.98
72558;BME280;60583;50.094;8.748;2023-03-18T07:09:39;100114.81;;;9.39;92.29
72558;BME280;60583;50.094;8.748;2023-03-18T07:12:06;100127.78;;;9.55;92.23
72558;BME280;60583;50.094;8.748;2023-03-18T07:14:31;100106.88;;;9.45;91.28
72558;BME280;60583;50.094;8.748;2023-03-18T07:16:57;100133.56;;;9.65;91.13
72558;BME280;60583;50.094;8.748;2023-03-18T07:19:23;100093.94;;;9.36;91.13
72558;BME280;60583;50.094;8.748;2023-03-18T07:21:49;100135.00;;;9.61;91.04
72558;BME280;60583;50.094;8.748;2023-03-18T07:24:15;100113.66;;;9.54;89.75
72558;BME280;60583;50.094;8.748;2023-03-18T07:26:42;100174.22;;;9.93;88.68
72558;BME280;60583;50.094;8.748;2023-03-18T07:29:07;100117.56;;;9.58;89.21
72558;BME280;60583;50.094;8.748;2023-03-18T07:31:34;100161.75;;;9.94;89.33
72558;BME280;60583;50.094;8.748;2023-03-18T07:33:59;100167.38;;;10.18;90.14
72558;BME280;60583;50.094;8.748;2023-03-18T07:36:25;100135.00;;;10.28;89.95
72558;BME280;60583;50.094;8.748;2023-03-18T07:38:52;100143.25;;;10.59;88.48
72558;BME280;60583;50.094;8.748;2023-03-18T07:41:18;100112.03;;;10.73;83.87
72558;BME280;60583;50.094;8.748;2023-03-18T07:43:43;100137.03;;;11.11;84.90
72558;BME280;60583;50.094;8.748;2023-03-18T07:46:09;100133.09;;;11.33;80.34
72558;BME280;60583;50.094;8.748;2023-03-18T07:48:35;100127.25;;;11.56;81.50
72558;BME280;60583;50.094;8.748;2023-03-18T07:51:00;100147.44;;;12.03;79.40
72558;BME280;60583;50.094;8.748;2023-03-18T07:53:27;100175.78;;;12.42;74.69
72558;BME280;60583;50.094;8.748;2023-03-18T07:55:53;100154.03;;;12.38;70.68
72558;BME280;60583;50.094;8.748;2023-03-18T07:58:18;100118.94;;;12.22;67.71
72558;BME280;60583;50.094;8.748;2023-03-18T08:00:45;100170.13;;;12.56;67.38
72558;BME280;60583;50.094;8.748;2023-03-18T08:03:11;100129.81;;;12.27;66.61
72558;BME280;60583;50.094;8.748;2023-03-18T08:05:38;100176.63;;;12.67;65.99
72558;BME280;60583;50.094;8.748;2023-03-18T08:08:05;100138.41;;;12.35;65.91
72558;BME280;60583;50.094;8.748;2023-03-18T08:10:31;100130.22;;;12.30;66.54
72558;BME280;60583;50.094;8.748;2023-03-18T08:12:56;100158.31;;;12.39;67.00
72558;BME280;60583;50.094;8.748;2023-03-18T08:15:22;100116.88;;;12.24;66.30
72558;BME280;60583;50.094;8.748;2023-03-18T08:17:49;100159.06;;;12.53;65.64
72558;BME280;60583;50.094;8.748;2023-03-18T08:20:16;100178.69;;;12.96;66.74
72558;BME280;60583;50.094;8.748;2023-03-18T08:22:42;100156.69;;;13.19;63.99
72558;BME280;60583;50.094;8.748;2023-03-18T08:25:10;100195.53;;;13.46;62.93
72558;BME280;60583;50.094;8.748;2023-03-18T08:27:36;100174.75;;;13.78;62.50
72558;BME280;60583;50.094;8.748;2023-03-18T08:30:02;100164.47;;;13.93;60.47
72558;BME280;60583;50.094;8.748;2023-03-18T08:32:28;100131.59;;;13.86;60.11
72558;BME280;60583;50.094;8.748;2023-03-18T08:34:53;100133.91;;;14.12;59.06
72558;BME280;60583;50.094;8.748;2023-03-18T08:37:19;100130.19;;;14.13;59.06
72558;BME280;60583;50.094;8.748;2023-03-18T08:39:44;100166.88;;;14.72;57.78
72558;BME280;60583;50.094;8.748;2023-03-18T08:42:10;100108.63;;;14.61;56.34
72558;BME280;60583;50.094;8.748;2023-03-18T08:44:36;100163.63;;;14.93;56.89
72558;BME280;60583;50.094;8.748;2023-03-18T08:47:01;100133.75;;;15.01;55.65
72558;BME280;60583;50.094;8.748;2023-03-18T08:49:27;100173.25;;;15.36;55.72
72558;BME280;60583;50.094;8.748;2023-03-18T08:51:53;100201.00;;;15.41;54.39
72558;BME280;60583;50.094;8.748;2023-03-18T08:54:19;100171.22;;;15.77;54.26
72558;BME280;60583;50.094;8.748;2023-03-18T08:56:49;100183.81;;;16.17;52.52
72558;BME280;60583;50.094;8.748;2023-03-18T08:59:17;100163.78;;;16.24;51.91
72558;BME280;60583;50.094;8.748;2023-03-18T09:01:42;100176.75;;;16.27;52.82
72558;BME280;60583;50.094;8.748;2023-03-18T09:04:08;100163.41;;;16.32;49.67
72558;BME280;60583;50.094;8.748;2023-03-18T09:06:33;100181.59;;;16.87;47.73
72558;BME280;60583;50.094;8.748;2023-03-18T09:08:59;100181.88;;;16.69;46.80
72558;BME280;60583;50.094;8.748;2023-03-18T09:11:24;100173.03;;;16.73;46.94
72558;BME280;60583;50.094;8.748;2023-03-18T09:13:50;100182.78;;;16.91;46.34
72558;BME280;60583;50.094;8.748;2023-03-18T09:16:16;100186.66;;;17.33;46.02
72558;BME280;60583;50.094;8.748;2023-03-18T09:18:42;100178.03;;;16.98;46.14
72558;BME280;60583;50.094;8.748;2023-03-18T09:21:08;100185.53;;;16.96;44.88
72558;BME280;60583;50.094;8.748;2023-03-18T09:23:33;100155.72;;;17.02;45.67
72558;BME280;60583;50.094;8.748;2023-03-18T09:25:59;100172.28;;;17.28;45.53
72558;BME280;60583;50.094;8.748;2023-03-18T09:28:25;100196.09;;;17.69;44.24
72558;BME280;60583;50.094;8.748;2023-03-18T09:30:51;100190.88;;;18.06;43.26
72558;BME280;60583;50.094;8.748;2023-03-18T09:33:18;100163.00;;;18.22;42.81
72558;BME280;60583;50.094;8.748;2023-03-18T09:35:43;100116.97;;;18.07;43.90
72558;BME280;60583;50.094;8.748;2023-03-18T09:38:16;100172.31;;;18.36;42.31
72558;BME280;60583;50.094;8.748;2023-03-18T09:49:08;100182.88;;;19.28;40.56
72558;BME280;60583;50.094;8.748;2023-03-18T09:52:07;100146.34;;;18.88;40.53
72558;BME280;60583;50.094;8.748;2023-03-18T09:55:08;100144.81;;;18.39;41.79
72558;BME280;60583;50.094;8.748;2023-03-18T09:57:44;100175.97;;;19.47;40.65
72558;BME280;60583;50.094;8.748;2023-03-18T10:02:57;100166.44;;;19.86;39.31
72558;BME280;60583;50.094;8.748;2023-03-18T10:05:29;100108.22;;;19.73;38.79
72558;BME280;60583;50.094;8.748;2023-03-18T10:08:00;100171.81;;;20.68;37.65
72558;BME280;60583;50.094;8.748;2023-03-18T10:10:34;100145.47;;;21.44;35.38
72558;BME280;60583;50.094;8.748;2023-03-18T10:13:06;100169.00;;;22.28;34.92
72558;BME280;60583;50.094;8.748;2023-03-18T10:15:44;100156.22;;;22.34;34.15
72558;BME280;60583;50.094;8.748;2023-03-18T10:18:40;100157.00;;;23.12;32.70
72558;BME280;60583;50.094;8.748;2023-03-18T10:24:28;100149.59;;;24.12;31.08
72558;BME280;60583;50.094;8.748;2023-03-18T10:26:59;100138.94;;;24.53;30.97
72558;BME280;60583;50.094;8.748;2023-03-18T10:35:12;100142.31;;;26.10;27.94
72558;BME280;60583;50.094;8.748;2023-03-18T10:37:53;100095.66;;;25.11;29.92
72558;BME280;60583;50.094;8.748;2023-03-18T10:40:23;100117.03;;;25.22;29.60
72558;BME280;60583;50.094;8.748;2023-03-18T10:42:49;100165.47;;;24.66;29.94
72558;BME280;60583;50.094;8.748;2023-03-18T10:45:31;100156.59;;;25.25;29.16
72558;BME280;60583;50.094;8.748;2023-03-18T10:48:03;100177.31;;;27.15;26.82
72558;BME280;60583;50.094;8.748;2023-03-18T10:50:41;100142.63;;;27.63;26.11
72558;BME280;60583;50.094;8.748;2023-03-18T10:53:18;100139.94;;;27.19;26.23
72558;BME280;60583;50.094;8.748;2023-03-18T10:55:59;100159.34;;;27.53;25.49
72558;BME280;60583;50.094;8.748;2023-03-18T10:58:26;100158.09;;;28.24;24.53
72558;BME280;60583;50.094;8.748;2023-03-18T11:00:53;100159.41;;;27.70;25.49
72558;BME280;60583;50.094;8.748;2023-03-18T11:03:24;100149.56;;;28.86;24.11
72558;BME280;60583;50.094;8.748;2023-03-18T11:05:51;100145.19;;;29.48;23.40
72558;BME280;60583;50.094;8.748;2023-03-18T11:10:53;100146.44;;;30.80;21.44
72558;BME280;60583;50.094;8.748;2023-03-18T11:13:20;100148.16;;;30.52;21.84
72558;BME280;60583;50.094;8.748;2023-03-18T11:15:51;100145.72;;;28.70;23.69
72558;BME280;60583;50.094;8.748;2023-03-18T11:18:23;100138.09;;;28.75;23.71
72558;BME280;60583;50.094;8.748;2023-03-18T11:20:56;100128.72;;;28.59;24.10
72558;BME280;60583;50.094;8.748;2023-03-18T11:23:36;100136.47;;;29.46;23.35
72558;BME280;60583;50.094;8.748;2023-03-18T11:26:29;100139.75;;;30.27;22.10
72558;BME280;60583;50.094;8.748;2023-03-18T11:29:03;100128.84;;;30.93;21.04
72558;BME280;60583;50.094;8.748;2023-03-18T11:31:29;100148.19;;;30.22;21.85
72558;BME280;60583;50.094;8.748;2023-03-18T11:33:57;100134.28;;;29.31;22.88
72558;BME280;60583;50.094;8.748;2023-03-18T11:36:26;100131.97;;;28.78;24.04
72558;BME280;60583;50.094;8.748;2023-03-18T11:39:03;100127.94;;;28.41;24.44
72558;BME280;60583;50.094;8.748;2023-03-18T11:41:28;100093.88;;;28.25;24.42
72558;BME280;60583;50.094;8.748;2023-03-18T11:46:39;100137.31;;;24.15;29.84
72558;BME280;60583;50.094;8.748;2023-03-18T11:49:14;100130.31;;;24.27;30.52
72558;BME280;60583;50.094;8.748;2023-03-18T12:00:31;100148.50;;;20.62;36.77
72558;BME280;60583;50.094;8.748;2023-03-18T12:06:38;100138.44;;;22.51;34.34
72558;BME280;60583;50.094;8.748;2023-03-18T12:09:33;100147.44;;;21.09;36.21
72558;BME280;60583;50.094;8.748;2023-03-18T12:12:28;100136.25;;;20.29;38.15
72558;BME280;60583;50.094;8.748;2023-03-18T12:17:52;100124.91;;;20.38;38.39
72558;BME280;60583;50.094;8.748;2023-03-18T12:20:48;100131.69;;;20.70;38.08
72558;BME280;60583;50.094;8.748;2023-03-18T12:26:06;100122.06;;;19.97;39.42
72558;BME280;60583;50.094;8.748;2023-03-18T12:29:08;100130.25;;;20.17;39.17
72558;BME280;60583;50.094;8.748;2023-03-18T12:37:28;100124.47;;;19.79;40.46
72558;BME280;60583;50.094;8.748;2023-03-18T12:40:28;100127.38;;;20.54;39.42
72558;BME280;60583;50.094;8.748;2023-03-18T12:42:59;100065.13;;;22.41;35.51
72558;BME280;60583;50.094;8.748;2023-03-18T12:45:44;100100.84;;;22.63;34.54
72558;BME280;60583;50.094;8.748;2023-03-18T12:48:15;100107.69;;;22.17;36.11
72558;BME280;60583;50.094;8.748;2023-03-18T12:50:46;100096.13;;;21.96;37.68
72558;BME280;60583;50.094;8.748;2023-03-18T12:53:22;100084.19;;;22.36;35.87
72558;BME280;60583;50.094;8.748;2023-03-18T12:56:02;100094.50;;;23.02;34.62
72558;BME280;60583;50.094;8.748;2023-03-18T12:58:34;100070.03;;;23.02;34.68
72558;BME280;60583;50.094;8.748;2023-03-18T13:01:25;100069.75;;;23.27;33.95
72558;BME280;60583;50.094;8.748;2023-03-18T13:03:59;100093.97;;;23.52;32.96
72558;BME280;60583;50.094;8.748;2023-03-18T13:06:35;100092.84;;;23.77;32.76
72558;BME280;60583;50.094;8.748;2023-03-18T13:09:34;100100.81;;;23.73;33.15
72558;BME280;60583;50.094;8.748;2023-03-18T13:14:46;100094.63;;;22.19;35.65
72558;BME280;60583;50.094;8.748;2023-03-18T13:17:31;100077.38;;;21.41;37.70
72558;BME280;60583;50.094;8.748;2023-03-18T13:19:59;100084.78;;;21.10;37.75
72558;BME280;60583;50.094;8.748;2023-03-18T13:34:05;100092.38;;;20.32;39.77
72558;BME280;60583;50.094;8.748;2023-03-18T13:36:51;100088.81;;;20.17;39.57
72558;BME280;60583;50.094;8.748;2023-03-18T13:39:59;100087.44;;;20.09;40.13
72558;BME280;60583;50.094;8.748;2023-03-18T13:42:32;100074.44;;;19.91;40.45
72558;BME280;60583;50.094;8.748;2023-03-18T13:45:32;100073.84;;;19.84;40.65
72558;BME280;60583;50.094;8.748;2023-03-18T13:48:05;100064.97;;;19.89;40.30
72558;BME280;60583;50.094;8.748;2023-03-18T13:50:37;100050.88;;;20.07;40.63
72558;BME280;60583;50.094;8.748;2023-03-18T13:53:13;100048.16;;;19.92;40.52
72558;BME280;60583;50.094;8.748;2023-03-18T13:55:48;100054.41;;;19.92;40.50
72558;BME280;60583;50.094;8.748;2023-03-18T13:58:20;100067.13;;;20.07;39.82
72558;BME280;60583;50.094;8.748;2023-03-18T14:01:14;100062.03;;;20.20;39.91
72558;BME280;60583;50.094;8.748;2023-03-18T14:17:01;100067.66;;;19.84;40.94
72558;BME280;60583;50.094;8.748;2023-03-18T14:19:22;100051.13;;;19.75;40.40
72558;BME280;60583;50.094;8.748;2023-03-18T14:22:03;100052.72;;;19.71;40.46